createdAt,value
2018-09-09T00:01:20.288Z,9.17
2018-09-09T00:06:24.126Z,31.57
2018-09-09T00:11:27.736Z,7.23
2018-09-09T00:16:31.036Z,5.87
2018-09-09T00:21:34.702Z,12.17
2018-09-09T00:26:38.525Z,12.13
2018-09-09T00:31:42.144Z,7.90
2018-09-09T00:36:46.163Z,14.53
2018-09-09T00:41:49.861Z,15.87
2018-09-09T00:46:53.225Z,10.40
2018-09-09T00:52:01.995Z,6.83
2018-09-09T00:57:06.075Z,7.57
2018-09-09T01:02:09.753Z,7.40
2018-09-09T01:07:13.361Z,11.13
2018-09-09T01:12:18.086Z,6.93
2018-09-09T01:17:21.667Z,7.97
2018-09-09T01:22:25.557Z,14.80
2018-09-09T01:27:28.904Z,5.90
2018-09-09T01:32:34.874Z,6.03
2018-09-09T01:37:38.673Z,8.73
2018-09-09T01:42:42.013Z,12.17
2018-09-09T01:47:46.201Z,11.00
2018-09-09T01:52:50.034Z,5.77
2018-09-09T01:57:53.913Z,14.73
2018-09-09T02:02:57.423Z,6.70
2018-09-09T02:08:00.925Z,9.50
2018-09-09T02:13:04.764Z,7.97
2018-09-09T02:18:09.413Z,9.87
2018-09-09T02:23:13.989Z,7.50
2018-09-09T02:28:18.842Z,16.43
2018-09-09T02:33:22.771Z,7.87
2018-09-09T02:38:27.818Z,5.80
2018-09-09T02:43:32.047Z,11.50
2018-09-09T02:48:36.565Z,6.63
2018-09-09T02:53:40.525Z,11.23
2018-09-09T02:58:44.016Z,8.77
2018-09-09T03:03:47.697Z,6.27
2018-09-09T03:08:51.235Z,8.97
2018-09-09T03:13:55.020Z,7.90
2018-09-09T03:18:58.636Z,10.20
2018-09-09T03:24:02.940Z,8.63
2018-09-09T03:29:06.880Z,7.00
2018-09-09T03:34:10.549Z,7.27
2018-09-09T03:39:14.449Z,10.40
2018-09-09T03:44:17.788Z,15.37
2018-09-09T03:49:21.316Z,16.03
2018-09-09T03:54:25.432Z,8.27
2018-09-09T03:59:29.623Z,7.80
2018-09-09T04:04:34.099Z,8.90
2018-09-09T04:09:37.868Z,8.83
2018-09-09T04:14:41.365Z,12.93
2018-09-09T04:19:44.818Z,17.20
2018-09-09T04:24:49.291Z,9.50
2018-09-09T04:29:53.161Z,8.50
2018-09-09T04:34:56.953Z,8.63
2018-09-09T04:40:00.518Z,15.40
2018-09-09T04:45:04.084Z,10.30
2018-09-09T04:50:07.497Z,17.23
2018-09-09T04:55:13.816Z,13.70
2018-09-09T05:00:17.661Z,9.00
2018-09-09T05:05:21.003Z,16.20
2018-09-09T05:10:28.103Z,16.63
2018-09-09T05:15:31.449Z,13.17
2018-09-09T05:20:34.845Z,11.10
2018-09-09T05:25:43.945Z,12.73
2018-09-09T05:30:47.929Z,19.67
2018-09-09T05:35:51.791Z,17.63
2018-09-09T05:41:03.662Z,14.90
2018-09-09T05:46:07.026Z,10.20
2018-09-09T05:51:10.662Z,14.07
2018-09-09T05:56:14.009Z,17.37
2018-09-09T06:01:19.626Z,14.93
2018-09-09T06:06:26.069Z,10.37
2018-09-09T06:11:44.777Z,18.50
2018-09-09T06:16:48.393Z,18.63
2018-09-09T06:21:51.947Z,20.23
2018-09-09T06:27:00.672Z,21.73
2018-09-09T06:32:04.492Z,20.13
2018-09-09T06:37:10.649Z,24.50
2018-09-09T06:42:15.449Z,19.37
2018-09-09T06:47:19.790Z,11.30
2018-09-09T06:52:23.972Z,8.87
2018-09-09T06:57:27.363Z,19.13
2018-09-09T07:02:30.782Z,23.33
2018-09-09T07:07:34.156Z,21.47
2018-09-09T07:12:37.953Z,22.53
2018-09-09T07:17:41.269Z,28.73
2018-09-09T07:22:44.673Z,29.00
2018-09-09T07:27:48.439Z,22.73
2018-09-09T07:32:54.744Z,31.83
2018-09-09T07:37:59.760Z,22.07
2018-09-09T07:43:06.438Z,37.43
2018-09-09T07:48:10.071Z,26.10
2018-09-09T07:53:13.538Z,45.73
2018-09-09T07:58:16.885Z,38.20
2018-09-09T08:03:20.212Z,35.80
2018-09-09T08:08:23.874Z,37.03
2018-09-09T08:13:31.805Z,32.03
2018-09-09T08:18:35.765Z,34.23
2018-09-09T08:23:50.181Z,25.10
2018-09-09T08:28:54.105Z,36.40
2018-09-09T08:34:01.694Z,36.80
2018-09-09T08:39:07.973Z,31.20
2018-09-09T08:44:11.839Z,28.43
2018-09-09T08:49:17.086Z,41.83
2018-09-09T08:54:20.600Z,26.03
2018-09-09T08:59:29.167Z,24.37
2018-09-09T09:04:33.565Z,30.70
2018-09-09T09:09:36.974Z,32.33
2018-09-09T09:14:42.515Z,27.90
2018-09-09T09:19:47.151Z,35.97
2018-09-09T09:24:50.618Z,37.17
2018-09-09T09:29:57.355Z,31.93
2018-09-09T09:35:05.498Z,21.67
2018-09-09T09:40:14.602Z,26.47
2018-09-09T09:45:18.448Z,20.73
2018-09-09T09:50:21.802Z,23.40
2018-09-09T09:55:27.962Z,19.97
2018-09-09T10:00:41.586Z,20.27
2018-09-09T10:05:45.258Z,8.43
2018-09-09T10:10:49.190Z,10.37
2018-09-09T10:15:52.714Z,23.03
2018-09-09T10:20:56.112Z,24.10
2018-09-09T10:25:59.779Z,10.00
2018-09-09T10:31:11.407Z,13.97
2018-09-09T10:36:17.525Z,22.90
2018-09-09T10:41:27.227Z,12.50
2018-09-09T10:46:36.626Z,8.00
2018-09-09T10:51:41.792Z,16.00
2018-09-09T10:56:47.070Z,20.47
2018-09-09T11:01:50.996Z,16.73
2018-09-09T11:07:04.444Z,26.33
2018-09-09T11:12:08.883Z,21.30
2018-09-09T11:17:12.457Z,16.40
2018-09-09T11:22:19.808Z,17.30
2018-09-09T11:27:23.791Z,13.33
2018-09-09T11:32:27.550Z,6.70
2018-09-09T11:37:30.953Z,15.83
2018-09-09T11:42:35.324Z,10.33
2018-09-09T11:47:50.139Z,9.57
2018-09-09T11:52:56.837Z,11.47
2018-09-09T11:58:01.047Z,12.70
2018-09-09T12:03:06.351Z,7.17
2018-09-09T12:08:18.300Z,9.97
2018-09-09T12:13:22.305Z,9.87
2018-09-09T12:18:26.310Z,16.37
2018-09-09T12:23:29.852Z,11.40
2018-09-09T12:28:33.653Z,4.97
2018-09-09T12:33:37.093Z,14.93
2018-09-09T12:38:40.714Z,6.73
2018-09-09T12:43:50.873Z,6.20
2018-09-09T12:49:01.577Z,10.73
2018-09-09T12:54:05.047Z,15.57
2018-09-09T12:59:08.965Z,8.67
2018-09-09T13:04:14.178Z,5.23
2018-09-09T13:09:17.913Z,7.33
2018-09-09T13:14:24.925Z,14.07
2018-09-09T13:19:28.854Z,7.47
2018-09-09T13:24:38.525Z,4.33
2018-09-09T13:29:49.569Z,4.57
2018-09-09T13:34:54.681Z,3.20
2018-09-09T13:39:58.078Z,4.73
2018-09-09T13:45:01.491Z,8.50
2018-09-09T13:50:05.469Z,11.33
2018-09-09T13:55:09.053Z,7.43
2018-09-09T14:00:12.699Z,10.97
2018-09-09T14:05:16.617Z,5.13
2018-09-09T14:10:20.323Z,10.63
2018-09-09T14:15:23.712Z,2.67
2018-09-09T14:20:27.388Z,5.60
2018-09-09T14:25:31.775Z,3.03
2018-09-09T14:30:35.230Z,2.43
2018-09-09T14:35:39.177Z,2.70
2018-09-09T14:40:42.778Z,3.37
2018-09-09T14:45:46.160Z,2.70
2018-09-09T14:50:49.814Z,2.00
2018-09-09T14:55:53.245Z,3.77
2018-09-09T15:00:56.769Z,3.33
2018-09-09T15:06:00.404Z,2.90
2018-09-09T15:11:04.294Z,2.40
2018-09-09T15:16:08.009Z,2.63
2018-09-09T15:21:16.261Z,3.80
2018-09-09T15:26:19.653Z,6.20
2018-09-09T15:31:23.130Z,2.83
2018-09-09T15:36:26.920Z,12.00
2018-09-09T15:41:30.796Z,11.13
2018-09-09T15:46:34.621Z,6.23
2018-09-09T15:51:38.350Z,2.10
2018-09-09T15:56:41.909Z,9.33
2018-09-09T16:01:45.470Z,4.97
2018-09-09T16:06:48.919Z,5.17
2018-09-09T16:11:53.104Z,9.07
2018-09-09T16:16:57.274Z,3.50
2018-09-09T16:22:04.105Z,3.93
2018-09-09T16:27:07.814Z,12.87
2018-09-09T16:32:20.392Z,14.73
2018-09-09T16:37:24.709Z,3.30
2018-09-09T16:42:28.468Z,4.97
2018-09-09T16:47:32.309Z,6.30
2018-09-09T16:52:35.846Z,4.67
2018-09-09T16:57:42.181Z,3.93
2018-09-09T17:02:45.907Z,10.00
2018-09-09T17:07:49.368Z,7.57
2018-09-09T17:12:56.458Z,3.93
2018-09-09T17:18:01.675Z,5.40
2018-09-09T17:23:09.353Z,3.87
2018-09-09T17:28:23.377Z,5.33
2018-09-09T17:33:31.968Z,2.47
2018-09-09T17:38:36.056Z,7.73
2018-09-09T17:43:39.761Z,3.17
2018-09-09T17:48:43.137Z,5.40
2018-09-09T17:53:47.440Z,5.83
2018-09-09T17:58:51.866Z,6.33
2018-09-09T18:03:55.935Z,3.90
2018-09-09T18:09:00.846Z,5.13
2018-09-09T18:14:04.922Z,9.00
2018-09-09T18:19:09.069Z,3.67
2018-09-09T18:24:20.939Z,5.83
2018-09-09T18:29:27.409Z,8.63
2018-09-09T18:34:31.762Z,3.43
2018-09-09T18:39:35.383Z,7.70
2018-09-09T18:44:39.199Z,3.20
2018-09-09T18:49:42.647Z,5.03
2018-09-09T18:54:46.330Z,4.37
2018-09-09T18:59:50.289Z,3.33
2018-09-09T19:04:53.826Z,4.10
2018-09-09T19:09:57.430Z,6.60
2018-09-09T19:15:02.313Z,9.10
2018-09-09T19:20:06.007Z,4.03
2018-09-09T19:25:10.194Z,3.30
2018-09-09T19:30:14.190Z,5.43
2018-09-09T19:35:19.719Z,4.23
2018-09-09T19:40:23.736Z,17.50
2018-09-09T19:45:27.314Z,3.73
2018-09-09T19:50:30.778Z,7.57
2018-09-09T19:55:34.406Z,3.63
2018-09-09T20:00:38.383Z,3.80
2018-09-09T20:05:42.266Z,7.07
2018-09-09T20:10:45.711Z,9.80
2018-09-09T20:15:52.828Z,3.77
2018-09-09T20:20:56.734Z,4.53
2018-09-09T20:26:00.113Z,4.70
2018-09-09T20:31:03.763Z,5.43
2018-09-09T20:36:07.472Z,12.30
2018-09-09T20:41:11.529Z,12.67
2018-09-09T20:46:15.448Z,7.90
2018-09-09T20:51:18.958Z,9.40
2018-09-09T20:56:24.099Z,11.40
2018-09-09T21:01:27.540Z,5.47
2018-09-09T21:06:31.498Z,8.30
2018-09-09T21:11:34.979Z,13.23
2018-09-09T21:16:38.860Z,8.00
2018-09-09T21:21:42.498Z,9.07
2018-09-09T21:26:46.492Z,7.83
2018-09-09T21:31:50.197Z,7.20
2018-09-09T21:36:54.066Z,11.20
2018-09-09T21:41:59.594Z,7.60
2018-09-09T21:47:03.331Z,8.33
2018-09-09T21:52:07.069Z,10.90
2018-09-09T21:57:10.547Z,6.70
2018-09-09T22:02:14.522Z,7.77
2018-09-09T22:07:18.149Z,12.33
2018-09-09T22:12:22.387Z,11.53
2018-09-09T22:17:26.198Z,5.87
2018-09-09T22:22:29.746Z,11.43
2018-09-09T22:27:33.752Z,6.60
2018-09-09T22:32:37.064Z,8.20
2018-09-09T22:37:40.714Z,8.20
2018-09-09T22:42:45.038Z,14.03
2018-09-09T22:47:48.625Z,6.80
2018-09-09T22:52:53.003Z,7.67
2018-09-09T22:57:56.729Z,9.60
2018-09-09T23:03:00.142Z,8.00
2018-09-09T23:08:03.615Z,7.80
2018-09-09T23:13:07.721Z,6.57
2018-09-09T23:18:11.281Z,8.10
2018-09-09T23:23:14.933Z,13.47
2018-09-09T23:28:19.130Z,5.97
2018-09-09T23:33:22.618Z,12.70
2018-09-09T23:38:26.232Z,5.87
2018-09-09T23:43:30.235Z,5.43
2018-09-09T23:48:34.090Z,5.57
2018-09-09T23:53:37.788Z,10.00
2018-09-09T23:58:41.832Z,12.13
